Time;durP1;ratioP1;P1;durP2;ratioP2;P2;SDS_P1;SDS_P2;PMS_P1;PMS_P2;Temp;Humidity;BMP_temperature;BMP_pressure;BME280_temperature;BME280_humidity;BME280_pressure;Samples;Min_cycle;Max_cycle;Signal;HPM_P1;HPM_P2
2023/03/12 00:00:18;;;;;;;2.65;1.40;;;;;;;;;;5115678;28;20247;-65
2023/03/12 00:02:46;;;;;;;5.80;1.80;;;;;;;;;;5115364;28;20289;-65
2023/03/12 00:05:13;;;;;;;5.88;2.00;;;;;;;;;;5115494;28;20588;-65
2023/03/12 00:07:40;;;;;;;5.70;1.60;;;;;;;;;;5115335;28;20195;-65
2023/03/12 00:10:09;;;;;;;1.80;1.40;;;;;;;;;;5115498;28;20223;-65
2023/03/12 00:12:36;;;;;;;1.40;1.30;;;;;;;;;;5115319;27;20620;-67
2023/03/12 00:15:04;;;;;;;2.38;1.75;;;;;;;;;;5115262;28;20214;-67
2023/03/12 00:17:31;;;;;;;2.58;1.70;;;;;;;;;;5115175;28;20273;-67
2023/03/12 00:19:58;;;;;;;3.33;1.40;;;;;;;;;;5115106;27;20245;-67
2023/03/12 00:22:25;;;;;;;5.70;1.92;;;;;;;;;;5115451;28;20535;-66
2023/03/12 00:24:52;;;;;;;3.22;1.50;;;;;;;;;;5115219;28;20191;-65
2023/03/12 00:27:21;;;;;;;2.80;1.55;;;;;;;;;;5115156;28;20199;-65
2023/03/12 00:29:48;;;;;;;1.77;1.40;;;;;;;;;;5115072;28;20192;-65
2023/03/12 00:32:15;;;;;;;2.10;1.88;;;;;;;;;;5114885;28;20222;-65
2023/03/12 00:34:43;;;;;;;1.73;1.63;;;;;;;;;;5114810;27;20247;-67
2023/03/12 00:37:10;;;;;;;5.75;1.70;;;;;;;;;;5114996;27;20601;-65
2023/03/12 00:39:37;;;;;;;6.65;1.73;;;;;;;;;;5114283;28;20193;-65
2023/03/12 00:42:04;;;;;;;7.43;1.83;;;;;;;;;;5114864;28;20277;-65
2023/03/12 00:44:33;;;;;;;3.15;1.75;;;;;;;;;;5114694;28;20192;-65
2023/03/12 00:47:00;;;;;;;3.28;1.80;;;;;;;;;;5114616;28;20200;-65
2023/03/12 00:49:27;;;;;;;2.63;1.70;;;;;;;;;;5114778;28;20287;-65
2023/03/12 00:51:54;;;;;;;1.55;1.45;;;;;;;;;;5114383;28;20215;-65
2023/03/12 00:54:21;;;;;;;3.88;2.22;;;;;;;;;;5114687;28;20200;-67
2023/03/12 00:56:48;;;;;;;2.53;1.63;;;;;;;;;;5114431;28;20271;-67
2023/03/12 00:59:15;;;;;;;8.75;2.05;;;;;;;;;;5114434;28;20192;-67
2023/03/12 01:01:44;;;;;;;1.45;1.35;;;;;;;;;;5114273;28;20192;-67
2023/03/12 01:04:11;;;;;;;1.85;1.40;;;;;;;;;;5114518;28;20217;-67
2023/03/12 01:06:38;;;;;;;3.13;1.85;;;;;;;;;;5114467;28;20257;-67
2023/03/12 01:09:05;;;;;;;1.95;1.52;;;;;;;;;;5114397;27;20198;-67
2023/03/12 01:11:32;;;;;;;2.50;1.35;;;;;;;;;;5114243;28;20360;-68
2023/03/12 01:14:00;;;;;;;2.55;1.33;;;;;;;;;;5114023;28;20199;-65
2023/03/12 01:16:28;;;;;;;2.50;1.73;;;;;;;;;;5113993;28;20188;-65
2023/03/12 01:18:57;;;;;;;4.22;1.40;;;;;;;;;;5113832;28;20258;-65
2023/03/12 01:21:25;;;;;;;6.47;1.33;;;;;;;;;;5114178;28;20532;-65
2023/03/12 01:23:52;;;;;;;2.28;1.83;;;;;;;;;;5114088;28;20194;-64
2023/03/12 01:26:19;;;;;;;2.47;1.85;;;;;;;;;;5113932;28;20724;-65
2023/03/12 01:28:46;;;;;;;2.30;1.52;;;;;;;;;;5113849;28;20222;-65
2023/03/12 01:31:14;;;;;;;3.67;1.67;;;;;;;;;;5114185;28;20223;-65
2023/03/12 01:33:42;;;;;;;7.15;1.50;;;;;;;;;;5113903;28;20202;-65
2023/03/12 01:36:16;;;;;;;2.25;1.70;;;;;;;;;;5113859;28;20292;-65
2023/03/12 01:38:43;;;;;;;4.57;1.42;;;;;;;;;;5113820;27;20194;-65
2023/03/12 01:41:10;;;;;;;1.65;1.30;;;;;;;;;;5113669;28;20212;-65
2023/03/12 01:43:38;;;;;;;6.45;1.70;;;;;;;;;;5113913;28;20245;-65
2023/03/12 01:46:13;;;;;;;7.00;2.25;;;;;;;;;;5113551;28;20485;-65
2023/03/12 01:48:41;;;;;;;2.85;1.58;;;;;;;;;;5113768;28;20708;-65
2023/03/12 01:51:09;;;;;;;2.67;1.20;;;;;;;;;;5113070;28;20240;-65
2023/03/12 01:53:38;;;;;;;8.23;2.38;;;;;;;;;;5113310;28;20261;-65
2023/03/12 01:56:05;;;;;;;6.47;2.35;;;;;;;;;;5113685;28;20286;-67
2023/03/12 01:58:34;;;;;;;2.05;1.30;;;;;;;;;;5113415;28;20667;-67
2023/03/12 02:01:01;;;;;;;2.17;1.55;;;;;;;;;;5113577;28;20242;-65
2023/03/12 02:03:29;;;;;;;2.65;1.30;;;;;;;;;;5113851;28;20192;-65
2023/03/12 02:05:58;;;;;;;4.32;1.35;;;;;;;;;;5113327;28;20199;-65
2023/03/12 02:08:25;;;;;;;2.42;1.20;;;;;;;;;;5114076;28;20591;-65
2023/03/12 02:10:54;;;;;;;2.45;1.73;;;;;;;;;;5113488;28;20216;-65
2023/03/12 02:13:21;;;;;;;4.15;1.40;;;;;;;;;;5113350;28;20216;-65
2023/03/12 02:15:48;;;;;;;3.33;1.42;;;;;;;;;;5113335;28;20192;-65
2023/03/12 02:18:16;;;;;;;2.50;1.35;;;;;;;;;;5113223;28;20709;-66
2023/03/12 02:20:48;;;;;;;4.97;1.52;;;;;;;;;;5113263;28;20597;-67
2023/03/12 02:23:19;;;;;;;4.35;1.33;;;;;;;;;;5113513;28;20273;-65
2023/03/12 02:25:49;;;;;;;2.00;1.67;;;;;;;;;;5113351;28;20200;-65
2023/03/12 02:28:17;;;;;;;3.45;2.22;;;;;;;;;;5113258;28;20195;-66
2023/03/12 02:30:46;;;;;;;3.08;1.40;;;;;;;;;;5113220;28;20233;-66
2023/03/12 02:33:14;;;;;;;3.67;1.77;;;;;;;;;;5113004;28;20212;-65
2023/03/12 02:35:41;;;;;;;1.80;1.70;;;;;;;;;;5113308;28;20191;-65
2023/03/12 02:38:23;;;;;;;2.78;1.60;;;;;;;;;;5112986;28;20220;-66
2023/03/12 02:40:52;;;;;;;2.22;1.40;;;;;;;;;;5113218;28;20215;-65
2023/03/12 02:43:21;;;;;;;7.88;2.42;;;;;;;;;;5113131;28;20257;-65
2023/03/12 02:45:48;;;;;;;5.40;2.53;;;;;;;;;;5112920;28;20716;-65
2023/03/12 02:48:15;;;;;;;5.07;1.90;;;;;;;;;;5113197;28;20192;-65
2023/03/12 02:50:42;;;;;;;1.42;1.30;;;;;;;;;;5113400;28;20192;-65
2023/03/12 02:53:09;;;;;;;3.70;1.77;;;;;;;;;;5113047;28;20299;-65
2023/03/12 02:55:36;;;;;;;3.47;1.52;;;;;;;;;;5112959;28;20188;-65
2023/03/12 02:58:04;;;;;;;2.25;1.50;;;;;;;;;;5113180;28;20287;-65
2023/03/12 03:00:31;;;;;;;1.90;1.80;;;;;;;;;;5112758;28;20559;-66
2023/03/12 03:02:59;;;;;;;2.00;1.80;;;;;;;;;;5114083;28;20285;-65
2023/03/12 03:05:26;;;;;;;8.38;2.30;;;;;;;;;;5116549;28;20655;-66
2023/03/12 03:07:53;;;;;;;2.38;2.10;;;;;;;;;;5116783;28;20200;-65
2023/03/12 03:10:20;;;;;;;4.43;1.95;;;;;;;;;;5116540;28;20188;-65
2023/03/12 03:12:47;;;;;;;2.25;1.90;;;;;;;;;;5116437;28;20739;-65
2023/03/12 03:15:16;;;;;;;4.70;1.88;;;;;;;;;;5116339;28;20184;-65
2023/03/12 03:17:43;;;;;;;4.25;1.70;;;;;;;;;;5116134;28;20695;-66
2023/03/12 03:20:10;;;;;;;3.65;1.90;;;;;;;;;;5116345;28;20188;-66
2023/03/12 03:22:38;;;;;;;2.30;2.10;;;;;;;;;;5116320;28;20188;-66
2023/03/12 03:25:05;;;;;;;1.42;1.33;;;;;;;;;;5116322;27;20192;-65
2023/03/12 03:27:32;;;;;;;1.90;1.80;;;;;;;;;;5116163;28;20584;-65
2023/03/12 03:29:59;;;;;;;5.47;1.55;;;;;;;;;;5116405;28;20188;-65
2023/03/12 03:32:28;;;;;;;5.05;2.08;;;;;;;;;;5116268;28;20212;-65
2023/03/12 03:34:55;;;;;;;5.60;2.20;;;;;;;;;;5115992;27;20199;-66
2023/03/12 03:37:22;;;;;;;2.20;1.50;;;;;;;;;;5116255;28;20191;-65
2023/03/12 03:39:49;;;;;;;2.25;1.55;;;;;;;;;;5115975;28;20250;-65
2023/03/12 03:42:16;;;;;;;1.85;1.60;;;;;;;;;;5116194;27;20192;-65
2023/03/12 03:44:43;;;;;;;3.45;1.67;;;;;;;;;;5115850;28;20237;-66
2023/03/12 03:47:10;;;;;;;4.93;1.60;;;;;;;;;;5115976;28;20185;-65
2023/03/12 03:49:39;;;;;;;3.90;1.70;;;;;;;;;;5115912;27;20184;-65
2023/03/12 03:52:06;;;;;;;3.83;1.67;;;;;;;;;;5115680;28;20212;-65
2023/03/12 03:54:34;;;;;;;2.88;1.88;;;;;;;;;;5115698;28;20196;-65
2023/03/12 03:57:01;;;;;;;1.92;1.40;;;;;;;;;;5115919;28;20278;-66
2023/03/12 03:59:28;;;;;;;3.53;1.75;;;;;;;;;;5115557;28;20246;-65
2023/03/12 04:01:55;;;;;;;2.38;1.88;;;;;;;;;;5115754;28;20206;-66
2023/03/12 04:04:22;;;;;;;2.88;1.80;;;;;;;;;;5115561;28;20206;-65
2023/03/12 04:06:50;;;;;;;2.78;1.80;;;;;;;;;;5115695;28;20239;-65
2023/03/12 04:09:17;;;;;;;2.67;1.65;;;;;;;;;;5115445;28;20278;-65
2023/03/12 04:11:44;;;;;;;1.88;1.77;;;;;;;;;;5115484;28;20600;-65
2023/03/12 04:14:12;;;;;;;3.22;1.75;;;;;;;;;;5114615;28;20278;-65
2023/03/12 04:16:39;;;;;;;2.15;1.50;;;;;;;;;;5115104;28;20239;-66
2023/03/12 04:19:06;;;;;;;2.42;1.90;;;;;;;;;;5115287;27;20666;-65
2023/03/12 04:21:33;;;;;;;2.10;1.90;;;;;;;;;;5115419;28;20576;-65
2023/03/12 04:24:01;;;;;;;1.70;1.60;;;;;;;;;;5115368;28;20250;-64
2023/03/12 04:26:28;;;;;;;3.72;2.08;;;;;;;;;;5115190;28;20218;-65
2023/03/12 04:28:55;;;;;;;1.48;1.38;;;;;;;;;;5115166;28;20559;-65
2023/03/12 04:31:22;;;;;;;2.95;1.67;;;;;;;;;;5115127;28;20275;-65
2023/03/12 04:33:49;;;;;;;2.72;2.38;;;;;;;;;;5114881;28;20212;-65
2023/03/12 04:36:16;;;;;;;2.00;1.75;;;;;;;;;;5114848;28;20189;-65
2023/03/12 04:38:43;;;;;;;2.85;1.83;;;;;;;;;;5114899;28;20187;-65
2023/03/12 04:41:13;;;;;;;3.72;2.00;;;;;;;;;;5114928;27;20264;-65
2023/03/12 04:43:40;;;;;;;4.05;1.70;;;;;;;;;;5114810;28;20282;-65
2023/03/12 04:46:08;;;;;;;4.13;1.67;;;;;;;;;;5114621;28;20184;-65
2023/03/12 04:48:35;;;;;;;2.75;1.90;;;;;;;;;;5114629;28;20223;-65
2023/03/12 04:51:02;;;;;;;3.08;1.95;;;;;;;;;;5114831;28;20188;-65
2023/03/12 04:53:29;;;;;;;3.00;2.05;;;;;;;;;;5114604;28;20540;-65
2023/03/12 04:55:57;;;;;;;2.00;1.80;;;;;;;;;;5114667;28;20241;-65
2023/03/12 04:58:25;;;;;;;5.43;1.73;;;;;;;;;;5114420;28;20668;-65
2023/03/12 05:00:52;;;;;;;2.72;1.92;;;;;;;;;;5114634;28;20281;-65
2023/03/12 05:03:19;;;;;;;2.83;2.60;;;;;;;;;;5114231;28;20193;-65
2023/03/12 05:05:46;;;;;;;3.08;2.17;;;;;;;;;;5114590;28;20621;-65
2023/03/12 05:08:13;;;;;;;6.13;2.72;;;;;;;;;;5114434;28;20200;-65
2023/03/12 05:10:44;;;;;;;6.93;2.50;;;;;;;;;;5114309;28;20195;-65
2023/03/12 05:13:14;;;;;;;2.88;2.22;;;;;;;;;;5114204;28;20215;-65
2023/03/12 05:15:42;;;;;;;4.05;2.25;;;;;;;;;;5114340;28;20195;-65
2023/03/12 05:18:09;;;;;;;3.10;2.80;;;;;;;;;;5114085;28;20595;-65
2023/03/12 05:20:36;;;;;;;5.88;2.58;;;;;;;;;;5114346;28;20192;-65
2023/03/12 05:23:03;;;;;;;2.55;1.75;;;;;;;;;;5114087;28;20191;-65
2023/03/12 05:25:30;;;;;;;3.63;2.55;;;;;;;;;;5113733;28;20661;-65
2023/03/12 05:27:58;;;;;;;2.38;2.10;;;;;;;;;;5114150;28;20205;-65
2023/03/12 05:30:25;;;;;;;4.50;2.90;;;;;;;;;;5113989;28;20195;-65
2023/03/12 05:32:53;;;;;;;3.13;2.63;;;;;;;;;;5113795;28;20231;-65
2023/03/12 05:35:20;;;;;;;4.32;2.72;;;;;;;;;;5113808;28;20723;-65
2023/03/12 05:37:47;;;;;;;2.85;2.60;;;;;;;;;;5113875;28;20650;-65
2023/03/12 05:40:15;;;;;;;2.97;2.50;;;;;;;;;;5113944;28;20215;-67
2023/03/12 05:42:42;;;;;;;3.30;3.00;;;;;;;;;;5113876;28;20200;-66
2023/03/12 05:45:09;;;;;;;4.45;2.47;;;;;;;;;;5113792;28;20214;-66
2023/03/12 05:47:36;;;;;;;3.00;2.80;;;;;;;;;;5113897;28;20555;-66
2023/03/12 05:50:05;;;;;;;6.65;3.88;;;;;;;;;;5113973;28;20189;-66
2023/03/12 05:52:32;;;;;;;6.00;5.50;;;;;;;;;;5113724;28;20278;-66
2023/03/12 05:55:00;;;;;;;8.00;5.93;;;;;;;;;;5113785;28;20192;-66
2023/03/12 05:57:27;;;;;;;5.45;4.50;;;;;;;;;;5113669;28;20194;-66
2023/03/12 05:59:54;;;;;;;4.18;3.88;;;;;;;;;;5113648;28;20195;-66
2023/03/12 06:02:22;;;;;;;4.80;4.32;;;;;;;;;;5113725;28;20199;-66
2023/03/12 06:04:49;;;;;;;8.88;4.55;;;;;;;;;;5113667;27;20184;-66
2023/03/12 06:07:17;;;;;;;5.32;4.68;;;;;;;;;;5113478;28;20286;-66
2023/03/12 06:09:44;;;;;;;6.30;3.90;;;;;;;;;;5113528;28;20220;-66
2023/03/12 06:12:12;;;;;;;4.30;3.85;;;;;;;;;;5113422;28;20734;-66
2023/03/12 06:14:39;;;;;;;4.55;3.75;;;;;;;;;;5113669;28;20594;-66
2023/03/12 06:17:06;;;;;;;3.55;3.25;;;;;;;;;;5113519;28;20576;-66
2023/03/12 06:19:33;;;;;;;5.70;3.70;;;;;;;;;;5113361;28;20646;-66
2023/03/12 06:22:00;;;;;;;4.15;3.72;;;;;;;;;;5113166;28;20220;-66
2023/03/12 06:24:28;;;;;;;5.38;3.95;;;;;;;;;;5113213;28;20192;-66
2023/03/12 06:26:56;;;;;;;5.45;3.80;;;;;;;;;;5113405;28;20192;-66
2023/03/12 06:29:23;;;;;;;4.70;3.38;;;;;;;;;;5113459;28;20195;-66
2023/03/12 06:31:51;;;;;;;5.03;2.97;;;;;;;;;;5113434;28;20199;-66
2023/03/12 06:34:18;;;;;;;4.70;3.10;;;;;;;;;;5113171;28;20220;-66
2023/03/12 06:36:45;;;;;;;3.85;2.67;;;;;;;;;;5113287;28;20446;-66
2023/03/12 06:39:12;;;;;;;3.53;2.35;;;;;;;;;;5116276;28;20716;-66
2023/03/12 06:41:41;;;;;;;4.72;2.90;;;;;;;;;;5117433;28;20194;-66
2023/03/12 06:44:08;;;;;;;4.30;3.05;;;;;;;;;;5117472;27;20228;-66
2023/03/12 06:46:35;;;;;;;3.35;3.03;;;;;;;;;;5117265;28;20188;-66
2023/03/12 06:49:03;;;;;;;2.95;2.75;;;;;;;;;;5117367;28;20184;-66
2023/03/12 06:51:30;;;;;;;3.97;2.80;;;;;;;;;;5117107;28;20578;-66
2023/03/12 06:53:57;;;;;;;3.35;2.28;;;;;;;;;;5116661;27;20215;-66
2023/03/12 06:56:24;;;;;;;2.15;1.95;;;;;;;;;;5116957;28;20191;-66
2023/03/12 06:58:52;;;;;;;2.95;2.10;;;;;;;;;;5116995;28;20184;-66
2023/03/12 07:01:20;;;;;;;2.30;2.10;;;;;;;;;;5116888;28;20193;-67
2023/03/12 07:03:47;;;;;;;4.75;2.97;;;;;;;;;;5116877;28;20195;-66
2023/03/12 07:06:15;;;;;;;3.75;2.30;;;;;;;;;;5116792;28;20561;-66
2023/03/12 07:08:42;;;;;;;3.25;2.25;;;;;;;;;;5116873;28;20185;-66
2023/03/12 07:11:09;;;;;;;4.00;2.28;;;;;;;;;;5116971;27;20699;-66
2023/03/12 07:13:37;;;;;;;2.88;2.00;;;;;;;;;;5116427;28;20553;-66
2023/03/12 07:16:06;;;;;;;2.67;2.22;;;;;;;;;;5116544;28;20185;-66
2023/03/12 07:18:33;;;;;;;2.88;2.10;;;;;;;;;;5116330;28;20707;-66
2023/03/12 07:21:00;;;;;;;3.85;2.47;;;;;;;;;;5116484;28;20192;-66
2023/03/12 07:23:27;;;;;;;2.60;2.25;;;;;;;;;;5116453;28;20219;-66
2023/03/12 07:25:54;;;;;;;2.88;1.80;;;;;;;;;;5116247;28;20593;-66
2023/03/12 07:28:22;;;;;;;5.40;2.28;;;;;;;;;;5116457;28;20643;-66
2023/03/12 07:30:50;;;;;;;6.50;2.88;;;;;;;;;;5116265;28;20184;-66
2023/03/12 07:33:19;;;;;;;4.47;3.35;;;;;;;;;;5116554;28;20247;-65
2023/03/12 07:35:46;;;;;;;4.90;3.42;;;;;;;;;;5116346;28;20206;-66
2023/03/12 07:38:13;;;;;;;5.53;4.13;;;;;;;;;;5116144;28;20536;-66
2023/03/12 07:40:41;;;;;;;3.83;3.17;;;;;;;;;;5116038;28;20216;-66
2023/03/12 07:43:11;;;;;;;4.32;2.88;;;;;;;;;;5115913;28;20188;-66
2023/03/12 07:45:38;;;;;;;4.35;2.30;;;;;;;;;;5116057;28;20201;-66
2023/03/12 07:48:05;;;;;;;5.75;2.30;;;;;;;;;;5115974;28;20189;-66
2023/03/12 07:50:34;;;;;;;2.47;1.98;;;;;;;;;;5116032;28;20249;-65
2023/03/12 07:53:01;;;;;;;2.15;1.95;;;;;;;;;;5116000;28;20235;-66
2023/03/12 07:55:28;;;;;;;3.78;2.50;;;;;;;;;;5116080;28;20192;-66
2023/03/12 07:57:57;;;;;;;4.88;2.80;;;;;;;;;;5115920;28;20196;-66
2023/03/12 08:00:25;;;;;;;5.78;3.17;;;;;;;;;;5115455;28;20192;-66
2023/03/12 08:02:52;;;;;;;5.03;3.42;;;;;;;;;;5115921;28;20192;-66
2023/03/12 08:05:19;;;;;;;5.63;2.72;;;;;;;;;;5115847;27;20203;-66
2023/03/12 08:07:48;;;;;;;3.78;3.17;;;;;;;;;;5115443;28;20223;-66
2023/03/12 08:10:15;;;;;;;3.03;2.83;;;;;;;;;;5115614;28;20192;-66
2023/03/12 08:12:42;;;;;;;5.00;3.50;;;;;;;;;;5115788;28;20454;-66
2023/03/12 08:15:09;;;;;;;6.70;3.70;;;;;;;;;;5115394;28;20230;-66
2023/03/12 08:17:36;;;;;;;3.67;3.33;;;;;;;;;;5115486;28;20481;-65
2023/03/12 08:20:04;;;;;;;4.60;2.75;;;;;;;;;;5115495;28;20450;-66
2023/03/12 08:22:31;;;;;;;5.47;2.93;;;;;;;;;;5115473;28;20228;-66
2023/03/12 08:25:00;;;;;;;3.03;2.70;;;;;;;;;;5115247;28;21010;-66
2023/03/12 08:27:27;;;;;;;8.55;3.45;;;;;;;;;;5115209;28;20635;-65
2023/03/12 08:29:54;;;;;;;2.65;2.45;;;;;;;;;;5115073;28;20647;-65
2023/03/12 08:32:22;;;;;;;3.97;2.40;;;;;;;;;;5115384;28;20193;-65
2023/03/12 08:34:49;;;;;;;5.65;2.70;;;;;;;;;;5115311;28;20303;-65
2023/03/12 08:37:16;;;;;;;2.90;2.70;;;;;;;;;;5115336;28;20192;-65
2023/03/12 08:39:43;;;;;;;4.50;2.92;;;;;;;;;;5115138;28;20246;-65
2023/03/12 08:42:12;;;;;;;5.93;2.53;;;;;;;;;;5115220;28;20193;-66
2023/03/12 08:44:40;;;;;;;5.43;3.00;;;;;;;;;;5115065;27;20196;-65
2023/03/12 08:47:07;;;;;;;6.70;2.40;;;;;;;;;;5114907;28;20234;-65
2023/03/12 08:49:34;;;;;;;4.30;2.35;;;;;;;;;;5114986;28;20275;-65
2023/03/12 08:52:01;;;;;;;5.25;2.70;;;;;;;;;;5114861;28;20184;-65
2023/03/12 08:54:34;;;;;;;2.20;1.92;;;;;;;;;;5114541;28;20220;-65
2023/03/12 08:57:01;;;;;;;3.50;2.50;;;;;;;;;;5114610;28;20211;-65
2023/03/12 08:59:30;;;;;;;4.75;2.08;;;;;;;;;;5114535;28;20524;-65
2023/03/12 09:01:57;;;;;;;12.23;3.53;;;;;;;;;;5113984;28;20227;-65
2023/03/12 09:04:24;;;;;;;5.55;2.80;;;;;;;;;;5114387;28;20219;-65
2023/03/12 09:06:51;;;;;;;4.73;2.40;;;;;;;;;;5114395;28;20190;-65
2023/03/12 09:09:18;;;;;;;3.40;2.07;;;;;;;;;;5114153;28;20556;-65
2023/03/12 09:11:45;;;;;;;7.37;3.03;;;;;;;;;;5114343;28;20456;-65
2023/03/12 09:14:12;;;;;;;4.50;2.40;;;;;;;;;;5114278;28;20999;-65
2023/03/12 09:16:40;;;;;;;3.20;2.40;;;;;;;;;;5114306;28;20481;-65
2023/03/12 09:19:07;;;;;;;2.90;1.80;;;;;;;;;;5113968;28;20798;-65
2023/03/12 09:21:34;;;;;;;1.87;1.77;;;;;;;;;;5113883;28;20469;-65
2023/03/12 09:24:01;;;;;;;2.20;2.00;;;;;;;;;;5114024;28;20489;-65
2023/03/12 09:26:28;;;;;;;1.80;1.70;;;;;;;;;;5113835;28;20474;-65
2023/03/12 09:28:56;;;;;;;3.58;2.30;;;;;;;;;;5113777;28;20559;-65
2023/03/12 09:31:23;;;;;;;3.20;1.90;;;;;;;;;;5113907;28;20615;-65
2023/03/12 09:33:52;;;;;;;5.37;2.27;;;;;;;;;;5113669;28;20486;-65
2023/03/12 09:36:18;;;;;;;2.40;1.90;;;;;;;;;;5113662;28;20456;-65
2023/03/12 09:38:45;;;;;;;6.57;2.23;;;;;;;;;;5113789;28;20945;-65
2023/03/12 09:41:17;;;;;;;3.40;1.63;;;;;;;;;;5113711;28;20452;-65
2023/03/12 09:43:48;;;;;;;6.20;2.40;;;;;;;;;;5113573;28;20442;-65
2023/03/12 09:46:18;;;;;;;4.03;1.20;;;;;;;;;;5113542;28;20884;-65
2023/03/12 09:48:46;;;;;;;1.73;1.63;;;;;;;;;;5113364;28;20461;-65
2023/03/12 09:51:18;;;;;;;2.60;1.00;;;;;;;;;;5113581;28;20859;-65
2023/03/12 09:53:47;;;;;;;5.70;1.97;;;;;;;;;;5113429;28;20445;-65
2023/03/12 09:56:15;;;;;;;2.73;1.07;;;;;;;;;;5113429;28;20544;-65
2023/03/12 09:58:46;;;;;;;4.20;1.40;;;;;;;;;;5113370;28;20484;-65
2023/03/12 10:01:20;;;;;;;3.10;1.37;;;;;;;;;;5113275;28;20451;-65
2023/03/12 10:03:57;;;;;;;10.40;2.50;;;;;;;;;;5113493;28;20450;-65
2023/03/12 10:06:28;;;;;;;2.23;1.50;;;;;;;;;;5113297;28;21008;-65
2023/03/12 10:09:02;;;;;;;4.40;1.80;;;;;;;;;;5113426;28;20469;-65
2023/03/12 10:11:32;;;;;;;2.50;1.17;;;;;;;;;;5113319;28;20461;-66
2023/03/12 10:14:04;;;;;;;1.73;1.50;;;;;;;;;;5116126;28;20470;-65
2023/03/12 10:16:38;;;;;;;3.77;2.50;;;;;;;;;;5117476;28;20452;-66
2023/03/12 10:19:12;;;;;;;1.33;1.23;;;;;;;;;;5117582;28;20536;-65
2023/03/12 10:21:43;;;;;;;2.80;1.70;;;;;;;;;;5117470;28;20514;-66
2023/03/12 10:24:34;;;;;;;3.10;1.30;;;;;;;;;;5117291;28;20884;-66
2023/03/12 10:27:01;;;;;;;2.63;1.73;;;;;;;;;;5101822;28;20442;-66
2023/03/12 10:29:29;;;;;;;1.80;1.70;;;;;;;;;;5117360;27;20454;-66
2023/03/12 10:31:59;;;;;;;5.07;1.70;;;;;;;;;;5117263;28;20446;-65
2023/03/12 10:34:29;;;;;;;2.93;2.30;;;;;;;;;;5117072;28;20480;-66
2023/03/12 10:37:00;;;;;;;2.90;2.37;;;;;;;;;;5117334;28;20519;-65
2023/03/12 10:39:27;;;;;;;3.80;1.43;;;;;;;;;;5117235;28;20450;-66
2023/03/12 10:41:54;;;;;;;2.50;1.77;;;;;;;;;;5117116;28;20536;-66
2023/03/12 10:44:22;;;;;;;2.37;1.70;;;;;;;;;;5117073;28;20532;-66
2023/03/12 10:46:53;;;;;;;3.63;1.77;;;;;;;;;;5116868;27;20810;-66
2023/03/12 10:49:27;;;;;;;1.70;1.53;;;;;;;;;;5116774;28;20442;-66
2023/03/12 10:51:55;;;;;;;2.60;1.33;;;;;;;;;;5116929;28;20446;-66
2023/03/12 10:54:23;;;;;;;3.77;1.50;;;;;;;;;;5116712;28;20474;-66
2023/03/12 10:56:51;;;;;;;1.53;1.20;;;;;;;;;;5116753;28;20450;-66
2023/03/12 10:59:21;;;;;;;3.70;1.47;;;;;;;;;;5116716;28;20966;-66
2023/03/12 11:01:50;;;;;;;4.80;2.00;;;;;;;;;;5116739;28;20456;-66
2023/03/12 11:04:18;;;;;;;4.20;2.13;;;;;;;;;;5116689;28;20446;-66
2023/03/12 11:07:02;;;;;;;3.67;2.03;;;;;;;;;;5116646;28;20442;-66
2023/03/12 11:09:31;;;;;;;4.70;1.47;;;;;;;;;;5116657;28;20883;-66
2023/03/12 11:11:58;;;;;;;1.60;1.20;;;;;;;;;;5116342;28;20456;-66
2023/03/12 11:14:26;;;;;;;3.77;1.47;;;;;;;;;;5116528;28;21006;-66
2023/03/12 11:16:54;;;;;;;2.57;1.60;;;;;;;;;;5116397;28;20968;-66
2023/03/12 11:19:28;;;;;;;1.87;1.20;;;;;;;;;;5116417;28;20959;-66
2023/03/12 11:21:56;;;;;;;3.93;2.87;;;;;;;;;;5116298;28;20529;-66
2023/03/12 11:24:23;;;;;;;3.90;2.17;;;;;;;;;;5115599;28;20450;-66
2023/03/12 11:26:55;;;;;;;3.20;1.70;;;;;;;;;;5116062;28;20446;-66
2023/03/12 11:29:25;;;;;;;7.23;1.60;;;;;;;;;;5116294;28;20475;-66
2023/03/12 11:31:58;;;;;;;4.23;2.00;;;;;;;;;;5115980;28;20973;-66
2023/03/12 11:34:26;;;;;;;6.20;2.30;;;;;;;;;;5115894;28;20534;-66
2023/03/12 11:36:59;;;;;;;5.63;2.13;;;;;;;;;;5116485;28;20446;-66
2023/03/12 11:39:30;;;;;;;2.10;1.90;;;;;;;;;;5116171;28;20437;-66
2023/03/12 11:42:15;;;;;;;3.33;2.43;;;;;;;;;;5116106;28;20540;-66
2023/03/12 11:44:51;;;;;;;3.13;2.33;;;;;;;;;;5115826;28;20456;-66
2023/03/12 11:47:23;;;;;;;4.80;2.10;;;;;;;;;;5115821;28;20479;-66
2023/03/12 11:50:03;;;;;;;2.30;2.00;;;;;;;;;;5115656;28;21100;-66
2023/03/12 11:52:35;;;;;;;3.47;2.40;;;;;;;;;;5115806;28;20456;-66
2023/03/12 11:55:19;;;;;;;6.17;2.30;;;;;;;;;;5115620;28;20523;-66
2023/03/12 11:57:51;;;;;;;3.20;2.20;;;;;;;;;;5115602;28;20528;-66
2023/03/12 12:00:21;;;;;;;5.30;1.90;;;;;;;;;;5115633;28;20941;-66
2023/03/12 12:02:57;;;;;;;4.10;2.13;;;;;;;;;;5115681;28;20454;-66
2023/03/12 12:05:31;;;;;;;3.30;1.97;;;;;;;;;;5115676;28;20448;-66
2023/03/12 12:08:06;;;;;;;7.23;2.33;;;;;;;;;;5115327;28;20477;-66
2023/03/12 12:10:38;;;;;;;3.00;2.00;;;;;;;;;;5115351;28;20459;-66
2023/03/12 12:13:09;;;;;;;3.20;2.33;;;;;;;;;;5115528;28;20457;-66
2023/03/12 12:15:39;;;;;;;3.07;1.97;;;;;;;;;;5115369;28;20478;-66
2023/03/12 12:18:15;;;;;;;4.10;1.80;;;;;;;;;;5114970;28;20504;-66
2023/03/12 12:20:45;;;;;;;3.27;1.70;;;;;;;;;;5115187;28;20449;-66
2023/03/12 12:23:19;;;;;;;3.10;1.97;;;;;;;;;;5115023;28;20959;-66
2023/03/12 12:26:05;;;;;;;3.93;1.70;;;;;;;;;;5115217;28;20449;-66
2023/03/12 12:28:43;;;;;;;1.90;1.63;;;;;;;;;;5115156;28;20462;-66
2023/03/12 12:31:21;;;;;;;3.10;1.80;;;;;;;;;;5114901;28;20879;-66
2023/03/12 12:33:56;;;;;;;4.67;1.80;;;;;;;;;;5115058;28;20865;-66
2023/03/12 12:36:25;;;;;;;4.27;1.67;;;;;;;;;;5113988;28;20526;-66
2023/03/12 12:38:54;;;;;;;4.63;1.73;;;;;;;;;;5114846;28;20445;-66
2023/03/12 12:41:24;;;;;;;4.80;1.97;;;;;;;;;;5114732;28;20809;-66
2023/03/12 12:43:52;;;;;;;1.73;1.63;;;;;;;;;;5114574;28;21061;-66
2023/03/12 12:46:21;;;;;;;6.93;1.80;;;;;;;;;;5114653;28;20451;-66
2023/03/12 12:48:50;;;;;;;4.90;1.87;;;;;;;;;;5114677;28;20446;-66
2023/03/12 12:51:20;;;;;;;3.40;1.80;;;;;;;;;;5114655;28;20544;-66
2023/03/12 12:53:51;;;;;;;5.13;2.00;;;;;;;;;;5114595;28;20528;-66
2023/03/12 12:56:20;;;;;;;1.67;1.57;;;;;;;;;;5114378;28;20910;-66
2023/03/12 12:58:58;;;;;;;1.87;1.57;;;;;;;;;;5114609;28;20899;-66
2023/03/12 13:01:26;;;;;;;2.80;1.80;;;;;;;;;;5114456;28;20533;-66
2023/03/12 13:03:58;;;;;;;2.23;2.00;;;;;;;;;;5114149;27;20450;-66
2023/03/12 13:06:28;;;;;;;3.60;2.63;;;;;;;;;;5114159;28;20538;-66
2023/03/12 13:09:10;;;;;;;5.97;2.77;;;;;;;;;;5114382;28;20790;-66
2023/03/12 13:11:40;;;;;;;2.93;1.97;;;;;;;;;;5111872;28;20454;-66
2023/03/12 13:14:15;;;;;;;4.07;2.40;;;;;;;;;;5114080;28;21022;-66
2023/03/12 13:16:44;;;;;;;3.03;1.73;;;;;;;;;;5113609;28;20556;-66
2023/03/12 13:19:23;;;;;;;2.20;2.00;;;;;;;;;;5113911;28;20878;-66
2023/03/12 13:21:54;;;;;;;1.77;1.63;;;;;;;;;;5114161;28;20541;-66
2023/03/12 13:24:23;;;;;;;3.63;1.83;;;;;;;;;;5113981;28;20442;-65
2023/03/12 13:26:56;;;;;;;2.00;1.80;;;;;;;;;;5113826;28;20803;-65
2023/03/12 13:29:36;;;;;;;2.57;2.10;;;;;;;;;;5113691;28;20448;-66
2023/03/12 13:32:05;;;;;;;3.80;1.80;;;;;;;;;;5113675;28;20940;-65
2023/03/12 13:34:53;;;;;;;2.47;1.90;;;;;;;;;;5113792;28;20513;-66
2023/03/12 13:37:29;;;;;;;1.70;1.60;;;;;;;;;;5113637;28;20541;-65
2023/03/12 13:39:56;;;;;;;6.63;1.87;;;;;;;;;;5113569;28;20453;-65
2023/03/12 13:42:41;;;;;;;3.57;1.63;;;;;;;;;;5113665;28;20538;-65
2023/03/12 13:45:22;;;;;;;3.73;1.53;;;;;;;;;;5113656;28;20494;-65
2023/03/12 13:47:52;;;;;;;2.47;1.53;;;;;;;;;;5113413;28;20450;-66
2023/03/12 13:50:19;;;;;;;4.50;2.10;;;;;;;;;;5113515;28;20474;-65
2023/03/12 13:52:49;;;;;;;1.77;1.43;;;;;;;;;;5113565;28;20441;-65
2023/03/12 13:55:18;;;;;;;3.27;1.70;;;;;;;;;;5113680;28;20568;-65
2023/03/12 13:57:46;;;;;;;2.30;1.47;;;;;;;;;;5113441;28;20556;-65
2023/03/12 14:00:16;;;;;;;3.10;1.80;;;;;;;;;;5113352;28;20900;-65
2023/03/12 14:02:45;;;;;;;4.20;1.77;;;;;;;;;;5113216;28;20533;-65
2023/03/12 14:05:14;;;;;;;2.40;1.40;;;;;;;;;;5113206;28;20544;-65
2023/03/12 14:07:50;;;;;;;2.83;1.53;;;;;;;;;;5113370;28;20446;-65
2023/03/12 14:10:20;;;;;;;4.50;1.60;;;;;;;;;;5113341;28;20854;-65
2023/03/12 14:12:53;;;;;;;1.30;1.20;;;;;;;;;;5113297;28;20450;-65
2023/03/12 14:15:28;;;;;;;2.57;1.50;;;;;;;;;;5113118;28;20476;-65
2023/03/12 14:17:57;;;;;;;4.60;2.03;;;;;;;;;;5112999;28;20473;-65
2023/03/12 14:20:25;;;;;;;1.90;1.60;;;;;;;;;;5113107;28;20528;-66
2023/03/12 14:22:55;;;;;;;1.67;1.27;;;;;;;;;;5113300;28;20541;-66
2023/03/12 14:25:26;;;;;;;5.37;1.03;;;;;;;;;;5113078;28;20525;-66
2023/03/12 14:27:53;;;;;;;2.83;1.07;;;;;;;;;;5112969;28;20883;-66
2023/03/12 14:30:22;;;;;;;1.40;1.13;;;;;;;;;;5113130;28;20489;-66
2023/03/12 14:32:50;;;;;;;6.57;1.40;;;;;;;;;;5112614;28;20441;-66
2023/03/12 14:35:20;;;;;;;1.30;1.10;;;;;;;;;;5113117;28;20478;-66
2023/03/12 14:37:51;;;;;;;1.23;1.07;;;;;;;;;;5113108;28;20450;-66
2023/03/12 14:40:24;;;;;;;1.87;0.97;;;;;;;;;;5112885;28;20447;-66
2023/03/12 14:42:51;;;;;;;1.10;1.00;;;;;;;;;;5113160;28;20507;-66
2023/03/12 14:45:19;;;;;;;2.30;1.03;;;;;;;;;;5113156;28;20450;-66
2023/03/12 14:47:47;;;;;;;1.73;1.07;;;;;;;;;;5113052;28;20481;-66
2023/03/12 14:50:17;;;;;;;1.43;1.33;;;;;;;;;;5113019;28;20546;-65
2023/03/12 14:52:44;;;;;;;1.30;1.20;;;;;;;;;;5112828;28;20820;-66